sensor_id;sensor_type;location;lat;lon;timestamp;P1;P2;P0
75960;PMS7003;64644;48.914;2.254;2023-03-08T00:00:12;23.50;22.25;12.75
75960;PMS7003;64644;48.914;2.254;2023-03-08T00:02:39;21.00;18.75;12.75
75960;PMS7003;64644;48.914;2.254;2023-03-08T00:05:05;16.50;14.00;11.00
75960;PMS7003;64644;48.914;2.254;2023-03-08T00:07:31;22.50;18.25;12.00
75960;PMS7003;64644;48.914;2.254;2023-03-08T00:09:57;20.00;18.75;12.00
75960;PMS7003;64644;48.914;2.254;2023-03-08T00:12:23;16.75;16.50;7.00
75960;PMS7003;64644;48.914;2.254;2023-03-08T00:14:48;22.50;21.50;12.00
75960;PMS7003;64644;48.914;2.254;2023-03-08T00:17:14;18.75;18.25;13.00
75960;PMS7003;64644;48.914;2.254;2023-03-08T00:19:40;17.00;16.25;11.75
75960;PMS7003;64644;48.914;2.254;2023-03-08T00:22:06;20.50;17.75;10.25
75960;PMS7003;64644;48.914;2.254;2023-03-08T00:24:31;17.25;17.25;12.50
75960;PMS7003;64644;48.914;2.254;2023-03-08T00:26:57;22.75;18.00;13.75
75960;PMS7003;64644;48.914;2.254;2023-03-08T00:29:22;24.00;20.75;12.50
75960;PMS7003;64644;48.914;2.254;2023-03-08T00:31:48;20.25;15.75;11.00
75960;PMS7003;64644;48.914;2.254;2023-03-08T00:34:13;21.50;18.75;12.50
75960;PMS7003;64644;48.914;2.254;2023-03-08T00:36:39;21.50;16.75;11.00
75960;PMS7003;64644;48.914;2.254;2023-03-08T00:39:05;18.00;18.00;11.00
75960;PMS7003;64644;48.914;2.254;2023-03-08T00:41:30;18.75;17.00;13.00
75960;PMS7003;64644;48.914;2.254;2023-03-08T00:43:56;22.00;18.50;13.00
75960;PMS7003;64644;48.914;2.254;2023-03-08T00:46:21;24.00;19.50;11.75
75960;PMS7003;64644;48.914;2.254;2023-03-08T00:48:47;18.25;18.25;13.75
75960;PMS7003;64644;48.914;2.254;2023-03-08T00:51:14;18.50;17.50;10.00
75960;PMS7003;64644;48.914;2.254;2023-03-08T00:53:40;16.00;16.00;10.50
75960;PMS7003;64644;48.914;2.254;2023-03-08T00:56:06;23.00;18.50;12.00
75960;PMS7003;64644;48.914;2.254;2023-03-08T00:58:31;23.50;21.50;14.00
75960;PMS7003;64644;48.914;2.254;2023-03-08T01:00:57;20.75;20.75;12.25
75960;PMS7003;64644;48.914;2.254;2023-03-08T01:03:24;19.50;17.75;11.25
75960;PMS7003;64644;48.914;2.254;2023-03-08T01:05:50;24.75;18.75;12.25
75960;PMS7003;64644;48.914;2.254;2023-03-08T01:08:18;22.00;15.50;8.50
75960;PMS7003;64644;48.914;2.254;2023-03-08T01:10:52;17.75;16.00;13.50
75960;PMS7003;64644;48.914;2.254;2023-03-08T01:13:20;19.50;16.50;11.75
75960;PMS7003;64644;48.914;2.254;2023-03-08T01:15:46;18.00;16.75;11.75
75960;PMS7003;64644;48.914;2.254;2023-03-08T01:18:11;20.00;15.00;9.25
75960;PMS7003;64644;48.914;2.254;2023-03-08T01:20:37;17.00;16.25;10.50
75960;PMS7003;64644;48.914;2.254;2023-03-08T01:23:02;24.25;20.25;12.75
75960;PMS7003;64644;48.914;2.254;2023-03-08T01:25:28;19.75;17.75;11.75
75960;PMS7003;64644;48.914;2.254;2023-03-08T01:27:53;21.50;19.50;13.50
75960;PMS7003;64644;48.914;2.254;2023-03-08T01:30:19;10.50;7.50;2.00
75960;PMS7003;64644;48.914;2.254;2023-03-08T01:32:44;17.50;17.50;11.00
75960;PMS7003;64644;48.914;2.254;2023-03-08T01:35:10;24.50;20.25;12.75
75960;PMS7003;64644;48.914;2.254;2023-03-08T01:37:35;16.75;15.75;12.00
75960;PMS7003;64644;48.914;2.254;2023-03-08T01:40:14;14.75;14.75;8.75
75960;PMS7003;64644;48.914;2.254;2023-03-08T01:42:40;19.75;14.25;8.25
75960;PMS7003;64644;48.914;2.254;2023-03-08T01:45:52;17.00;17.00;11.25
75960;PMS7003;64644;48.914;2.254;2023-03-08T01:48:10;17.50;15.00;11.00
75960;PMS7003;64644;48.914;2.254;2023-03-08T01:50:36;23.25;19.00;11.00
75960;PMS7003;64644;48.914;2.254;2023-03-08T01:53:02;17.25;17.25;11.00
75960;PMS7003;64644;48.914;2.254;2023-03-08T01:55:27;18.25;15.50;10.50
75960;PMS7003;64644;48.914;2.254;2023-03-08T01:57:53;20.75;17.00;11.75
75960;PMS7003;64644;48.914;2.254;2023-03-08T02:00:21;19.75;18.50;12.00
75960;PMS7003;64644;48.914;2.254;2023-03-08T02:02:49;20.25;15.25;9.25
75960;PMS7003;64644;48.914;2.254;2023-03-08T02:05:24;23.50;21.00;11.50
75960;PMS7003;64644;48.914;2.254;2023-03-08T02:07:51;19.25;18.00;12.00
75960;PMS7003;64644;48.914;2.254;2023-03-08T02:10:16;13.50;11.00;9.25
75960;PMS7003;64644;48.914;2.254;2023-03-08T02:12:42;16.50;16.50;11.50
75960;PMS7003;64644;48.914;2.254;2023-03-08T02:15:09;22.00;18.25;11.00
75960;PMS7003;64644;48.914;2.254;2023-03-08T02:17:36;21.75;17.75;11.50
75960;PMS7003;64644;48.914;2.254;2023-03-08T02:20:11;19.00;16.75;9.25
75960;PMS7003;64644;48.914;2.254;2023-03-08T02:22:41;6.00;4.25;2.00
75960;PMS7003;64644;48.914;2.254;2023-03-08T02:27:39;19.00;18.00;11.00
75960;PMS7003;64644;48.914;2.254;2023-03-08T02:30:05;18.25;16.25;11.00
75960;PMS7003;64644;48.914;2.254;2023-03-08T02:32:32;18.00;16.00;10.00
75960;PMS7003;64644;48.914;2.254;2023-03-08T02:34:57;13.75;12.00;9.50
75960;PMS7003;64644;48.914;2.254;2023-03-08T02:37:22;16.75;13.75;9.00
75960;PMS7003;64644;48.914;2.254;2023-03-08T02:39:48;15.00;11.25;6.75
75960;PMS7003;64644;48.914;2.254;2023-03-08T02:42:14;15.75;14.75;9.00
75960;PMS7003;64644;48.914;2.254;2023-03-08T02:44:39;18.00;15.00;9.00
75960;PMS7003;64644;48.914;2.254;2023-03-08T02:47:05;11.75;11.50;5.00
75960;PMS7003;64644;48.914;2.254;2023-03-08T02:49:30;17.25;12.00;9.25
75960;PMS7003;64644;48.914;2.254;2023-03-08T02:51:56;17.50;12.50;8.00
75960;PMS7003;64644;48.914;2.254;2023-03-08T02:54:21;14.25;12.00;8.75
75960;PMS7003;64644;48.914;2.254;2023-03-08T02:56:46;14.00;14.00;9.25
75960;PMS7003;64644;48.914;2.254;2023-03-08T02:59:12;16.00;16.00;9.25
75960;PMS7003;64644;48.914;2.254;2023-03-08T03:01:37;22.00;16.75;9.00
75960;PMS7003;64644;48.914;2.254;2023-03-08T03:04:02;8.75;8.75;4.75
75960;PMS7003;64644;48.914;2.254;2023-03-08T03:06:28;14.75;13.00;8.00
75960;PMS7003;64644;48.914;2.254;2023-03-08T03:08:53;16.25;15.00;11.00
75960;PMS7003;64644;48.914;2.254;2023-03-08T03:11:19;19.75;14.00;10.00
75960;PMS7003;64644;48.914;2.254;2023-03-08T03:13:46;15.00;13.00;10.00
75960;PMS7003;64644;48.914;2.254;2023-03-08T03:16:13;24.25;19.75;10.75
75960;PMS7003;64644;48.914;2.254;2023-03-08T03:18:40;13.75;10.75;5.75
75960;PMS7003;64644;48.914;2.254;2023-03-08T03:21:07;11.75;10.75;7.25
75960;PMS7003;64644;48.914;2.254;2023-03-08T03:23:34;14.50;12.50;9.00
75960;PMS7003;64644;48.914;2.254;2023-03-08T03:26:07;15.00;12.25;8.25
75960;PMS7003;64644;48.914;2.254;2023-03-08T03:28:34;12.00;10.00;5.75
75960;PMS7003;64644;48.914;2.254;2023-03-08T03:31:00;17.25;15.00;9.00
75960;PMS7003;64644;48.914;2.254;2023-03-08T03:33:30;13.50;13.50;8.75
75960;PMS7003;64644;48.914;2.254;2023-03-08T03:35:55;15.00;14.00;8.50
75960;PMS7003;64644;48.914;2.254;2023-03-08T03:38:21;12.25;11.75;8.75
75960;PMS7003;64644;48.914;2.254;2023-03-08T03:40:46;11.00;11.00;7.75
75960;PMS7003;64644;48.914;2.254;2023-03-08T03:43:11;11.50;9.00;8.00
75960;PMS7003;64644;48.914;2.254;2023-03-08T03:45:37;13.75;8.25;7.00
75960;PMS7003;64644;48.914;2.254;2023-03-08T03:48:02;14.00;13.25;9.00
75960;PMS7003;64644;48.914;2.254;2023-03-08T03:50:27;15.50;11.75;8.75
75960;PMS7003;64644;48.914;2.254;2023-03-08T03:52:53;11.75;11.75;8.75
75960;PMS7003;64644;48.914;2.254;2023-03-08T03:55:18;13.50;11.25;7.50
75960;PMS7003;64644;48.914;2.254;2023-03-08T03:57:44;9.00;9.00;6.75
75960;PMS7003;64644;48.914;2.254;2023-03-08T04:00:09;18.25;16.25;8.50
75960;PMS7003;64644;48.914;2.254;2023-03-08T04:02:35;11.50;9.00;6.50
75960;PMS7003;64644;48.914;2.254;2023-03-08T04:05:00;14.50;9.25;7.25
75960;PMS7003;64644;48.914;2.254;2023-03-08T04:07:26;11.00;8.75;7.00
75960;PMS7003;64644;48.914;2.254;2023-03-08T04:09:51;11.00;10.75;7.50
75960;PMS7003;64644;48.914;2.254;2023-03-08T04:12:16;11.25;9.00;7.00
75960;PMS7003;64644;48.914;2.254;2023-03-08T04:14:42;11.75;9.75;6.75
75960;PMS7003;64644;48.914;2.254;2023-03-08T04:17:07;15.50;11.25;7.50
75960;PMS7003;64644;48.914;2.254;2023-03-08T04:19:33;8.75;8.75;6.75
75960;PMS7003;64644;48.914;2.254;2023-03-08T04:21:58;9.50;8.75;4.75
75960;PMS7003;64644;48.914;2.254;2023-03-08T04:24:23;16.25;13.00;6.75
75960;PMS7003;64644;48.914;2.254;2023-03-08T04:26:49;8.50;8.25;5.00
75960;PMS7003;64644;48.914;2.254;2023-03-08T04:29:14;9.25;7.75;5.00
75960;PMS7003;64644;48.914;2.254;2023-03-08T04:31:40;7.75;7.75;5.00
75960;PMS7003;64644;48.914;2.254;2023-03-08T04:34:05;7.75;7.00;4.00
75960;PMS7003;64644;48.914;2.254;2023-03-08T04:36:31;10.75;6.50;6.50
75960;PMS7003;64644;48.914;2.254;2023-03-08T04:38:56;14.50;6.25;4.00
75960;PMS7003;64644;48.914;2.254;2023-03-08T04:41:22;8.00;5.25;4.50
75960;PMS7003;64644;48.914;2.254;2023-03-08T04:43:49;8.50;7.00;4.00
75960;PMS7003;64644;48.914;2.254;2023-03-08T04:46:16;6.50;4.75;3.50
75960;PMS7003;64644;48.914;2.254;2023-03-08T04:48:43;6.25;2.00;2.00
75960;PMS7003;64644;48.914;2.254;2023-03-08T04:51:09;6.00;5.00;3.00
75960;PMS7003;64644;48.914;2.254;2023-03-08T04:53:36;5.50;4.50;4.00
75960;PMS7003;64644;48.914;2.254;2023-03-08T04:56:03;0.50;0.50;0.00
75960;PMS7003;64644;48.914;2.254;2023-03-08T04:58:29;4.25;4.25;1.00
75960;PMS7003;64644;48.914;2.254;2023-03-08T05:00:55;4.75;4.75;1.00
75960;PMS7003;64644;48.914;2.254;2023-03-08T05:03:21;6.25;4.25;2.50
75960;PMS7003;64644;48.914;2.254;2023-03-08T05:05:47;3.00;3.00;1.50
75960;PMS7003;64644;48.914;2.254;2023-03-08T05:08:14;4.00;2.50;1.00
75960;PMS7003;64644;48.914;2.254;2023-03-08T05:10:45;4.00;4.00;2.00
75960;PMS7003;64644;48.914;2.254;2023-03-08T05:13:22;2.00;2.00;1.00
75960;PMS7003;64644;48.914;2.254;2023-03-08T05:15:48;6.00;4.00;2.50
75960;PMS7003;64644;48.914;2.254;2023-03-08T05:18:13;4.50;3.00;1.75
75960;PMS7003;64644;48.914;2.254;2023-03-08T05:20:39;5.00;4.00;2.00
75960;PMS7003;64644;48.914;2.254;2023-03-08T05:23:04;1.50;1.50;1.00
75960;PMS7003;64644;48.914;2.254;2023-03-08T05:25:29;6.25;5.00;2.00
75960;PMS7003;64644;48.914;2.254;2023-03-08T05:27:55;3.25;1.75;1.00
75960;PMS7003;64644;48.914;2.254;2023-03-08T05:30:21;4.00;2.00;1.50
75960;PMS7003;64644;48.914;2.254;2023-03-08T05:32:46;4.00;4.00;2.00
75960;PMS7003;64644;48.914;2.254;2023-03-08T05:35:11;5.00;5.00;2.00
75960;PMS7003;64644;48.914;2.254;2023-03-08T05:37:37;4.00;4.00;1.50
75960;PMS7003;64644;48.914;2.254;2023-03-08T05:40:03;4.00;4.00;1.75
75960;PMS7003;64644;48.914;2.254;2023-03-08T05:42:30;7.25;4.00;1.50
75960;PMS7003;64644;48.914;2.254;2023-03-08T05:44:58;4.50;4.50;3.00
75960;PMS7003;64644;48.914;2.254;2023-03-08T05:47:24;2.50;2.00;1.75
75960;PMS7003;64644;48.914;2.254;2023-03-08T05:49:49;4.25;2.00;1.25
75960;PMS7003;64644;48.914;2.254;2023-03-08T05:52:15;2.00;2.00;1.50
75960;PMS7003;64644;48.914;2.254;2023-03-08T05:54:42;1.50;1.50;1.50
75960;PMS7003;64644;48.914;2.254;2023-03-08T05:57:07;2.00;2.00;2.00
75960;PMS7003;64644;48.914;2.254;2023-03-08T05:59:33;5.00;4.00;3.50
75960;PMS7003;64644;48.914;2.254;2023-03-08T06:01:58;2.50;2.00;1.25
75960;PMS7003;64644;48.914;2.254;2023-03-08T06:04:24;2.00;2.00;1.00
75960;PMS7003;64644;48.914;2.254;2023-03-08T06:06:49;0.50;0.50;0.00
75960;PMS7003;64644;48.914;2.254;2023-03-08T06:09:15;4.00;2.00;1.00
75960;PMS7003;64644;48.914;2.254;2023-03-08T06:11:40;1.25;1.25;1.00
75960;PMS7003;64644;48.914;2.254;2023-03-08T06:14:05;2.00;2.00;1.00
75960;PMS7003;64644;48.914;2.254;2023-03-08T06:16:31;5.00;1.00;1.00
75960;PMS7003;64644;48.914;2.254;2023-03-08T06:18:56;2.00;1.25;1.00
75960;PMS7003;64644;48.914;2.254;2023-03-08T06:21:22;4.25;1.00;0.25
75960;PMS7003;64644;48.914;2.254;2023-03-08T06:23:47;1.00;1.00;1.00
75960;PMS7003;64644;48.914;2.254;2023-03-08T06:26:14;4.00;2.00;1.00
75960;PMS7003;64644;48.914;2.254;2023-03-08T06:28:40;2.00;1.25;1.00
75960;PMS7003;64644;48.914;2.254;2023-03-08T06:31:06;1.25;1.00;1.00
75960;PMS7003;64644;48.914;2.254;2023-03-08T06:33:33;1.00;1.00;0.00
75960;PMS7003;64644;48.914;2.254;2023-03-08T06:35:59;1.75;1.75;1.00
75960;PMS7003;64644;48.914;2.254;2023-03-08T06:38:43;4.00;2.00;1.75
75960;PMS7003;64644;48.914;2.254;2023-03-08T06:41:10;3.50;3.50;2.00
75960;PMS7003;64644;48.914;2.254;2023-03-08T06:43:36;4.50;2.00;1.00
75960;PMS7003;64644;48.914;2.254;2023-03-08T06:46:03;1.50;1.00;1.00
75960;PMS7003;64644;48.914;2.254;2023-03-08T06:48:29;1.75;1.75;1.00
75960;PMS7003;64644;48.914;2.254;2023-03-08T06:50:54;4.00;0.50;0.25
75960;PMS7003;64644;48.914;2.254;2023-03-08T06:53:20;1.00;1.00;1.00
75960;PMS7003;64644;48.914;2.254;2023-03-08T06:55:45;0.50;0.50;0.50
75960;PMS7003;64644;48.914;2.254;2023-03-08T06:58:10;1.00;1.00;0.50
75960;PMS7003;64644;48.914;2.254;2023-03-08T07:00:36;0.75;0.75;0.00
75960;PMS7003;64644;48.914;2.254;2023-03-08T07:03:01;2.00;0.50;0.50
75960;PMS7003;64644;48.914;2.254;2023-03-08T07:05:27;0.25;0.25;0.00
75960;PMS7003;64644;48.914;2.254;2023-03-08T07:07:52;0.25;0.25;0.00
75960;PMS7003;64644;48.914;2.254;2023-03-08T07:10:19;1.00;0.00;0.00
75960;PMS7003;64644;48.914;2.254;2023-03-08T07:12:46;1.00;1.00;0.50
75960;PMS7003;64644;48.914;2.254;2023-03-08T07:15:14;1.00;1.00;1.00
75960;PMS7003;64644;48.914;2.254;2023-03-08T07:17:45;1.00;1.00;0.25
75960;PMS7003;64644;48.914;2.254;2023-03-08T07:20:11;1.00;1.00;1.00
75960;PMS7003;64644;48.914;2.254;2023-03-08T07:22:38;1.50;0.50;0.00
75960;PMS7003;64644;48.914;2.254;2023-03-08T07:25:06;1.00;1.00;0.00
75960;PMS7003;64644;48.914;2.254;2023-03-08T07:27:32;0.00;0.00;0.00
75960;PMS7003;64644;48.914;2.254;2023-03-08T07:29:58;0.00;0.00;0.00
75960;PMS7003;64644;48.914;2.254;2023-03-08T07:32:23;0.00;0.00;0.00
75960;PMS7003;64644;48.914;2.254;2023-03-08T07:34:52;0.50;0.00;0.00
75960;PMS7003;64644;48.914;2.254;2023-03-08T07:37:18;1.00;1.00;0.25
75960;PMS7003;64644;48.914;2.254;2023-03-08T07:39:44;2.50;1.00;0.50
75960;PMS7003;64644;48.914;2.254;2023-03-08T07:42:09;1.00;0.50;0.00
75960;PMS7003;64644;48.914;2.254;2023-03-08T07:44:35;3.00;1.00;0.00
75960;PMS7003;64644;48.914;2.254;2023-03-08T07:47:06;0.75;0.75;0.75
75960;PMS7003;64644;48.914;2.254;2023-03-08T07:49:32;1.00;1.00;0.00
75960;PMS7003;64644;48.914;2.254;2023-03-08T07:51:57;0.75;0.75;0.00
75960;PMS7003;64644;48.914;2.254;2023-03-08T07:54:23;0.50;0.50;0.00
75960;PMS7003;64644;48.914;2.254;2023-03-08T07:56:50;0.50;0.50;0.00
75960;PMS7003;64644;48.914;2.254;2023-03-08T07:59:16;0.75;0.50;0.00
75960;PMS7003;64644;48.914;2.254;2023-03-08T08:01:41;0.25;0.25;0.25
75960;PMS7003;64644;48.914;2.254;2023-03-08T08:04:07;1.75;1.00;0.00
75960;PMS7003;64644;48.914;2.254;2023-03-08T08:06:33;0.00;0.00;0.00
75960;PMS7003;64644;48.914;2.254;2023-03-08T08:09:00;0.00;0.00;0.00
75960;PMS7003;64644;48.914;2.254;2023-03-08T08:11:26;0.00;0.00;0.00
75960;PMS7003;64644;48.914;2.254;2023-03-08T08:13:52;0.50;0.00;0.00
75960;PMS7003;64644;48.914;2.254;2023-03-08T08:16:17;1.00;0.00;0.00
75960;PMS7003;64644;48.914;2.254;2023-03-08T08:18:43;0.00;0.00;0.00
75960;PMS7003;64644;48.914;2.254;2023-03-08T08:21:12;0.25;0.00;0.00
75960;PMS7003;64644;48.914;2.254;2023-03-08T08:23:39;0.50;0.00;0.00
75960;PMS7003;64644;48.914;2.254;2023-03-08T08:26:07;1.50;0.00;0.00
75960;PMS7003;64644;48.914;2.254;2023-03-08T08:28:38;1.00;1.00;0.00
75960;PMS7003;64644;48.914;2.254;2023-03-08T08:31:05;4.75;1.00;0.00
75960;PMS7003;64644;48.914;2.254;2023-03-08T08:33:36;0.75;0.00;0.00
75960;PMS7003;64644;48.914;2.254;2023-03-08T08:36:03;0.75;0.00;0.00
75960;PMS7003;64644;48.914;2.254;2023-03-08T08:38:30;0.75;0.75;0.00
75960;PMS7003;64644;48.914;2.254;2023-03-08T08:40:59;0.75;0.00;0.00
75960;PMS7003;64644;48.914;2.254;2023-03-08T08:43:26;1.25;0.25;0.00
75960;PMS7003;64644;48.914;2.254;2023-03-08T08:45:55;0.75;0.00;0.00
75960;PMS7003;64644;48.914;2.254;2023-03-08T08:48:22;0.00;0.00;0.00
75960;PMS7003;64644;48.914;2.254;2023-03-08T08:50:48;1.25;1.25;0.50
75960;PMS7003;64644;48.914;2.254;2023-03-08T08:53:13;0.75;0.00;0.00
75960;PMS7003;64644;48.914;2.254;2023-03-08T08:55:39;1.25;1.25;0.75
75960;PMS7003;64644;48.914;2.254;2023-03-08T08:58:04;1.50;1.00;1.00
75960;PMS7003;64644;48.914;2.254;2023-03-08T09:00:32;2.50;1.00;0.00
75960;PMS7003;64644;48.914;2.254;2023-03-08T09:02:58;2.00;1.00;0.00
75960;PMS7003;64644;48.914;2.254;2023-03-08T09:05:24;1.00;0.75;0.00
75960;PMS7003;64644;48.914;2.254;2023-03-08T09:07:53;2.50;2.50;0.75
75960;PMS7003;64644;48.914;2.254;2023-03-08T09:10:20;1.50;1.50;0.25
75960;PMS7003;64644;48.914;2.254;2023-03-08T09:12:45;1.25;1.00;0.00
75960;PMS7003;64644;48.914;2.254;2023-03-08T09:15:11;1.00;0.00;0.00
75960;PMS7003;64644;48.914;2.254;2023-03-08T09:17:37;2.00;1.00;0.00
75960;PMS7003;64644;48.914;2.254;2023-03-08T09:20:04;1.50;1.50;0.00
75960;PMS7003;64644;48.914;2.254;2023-03-08T09:22:34;1.75;1.00;0.00
75960;PMS7003;64644;48.914;2.254;2023-03-08T09:25:00;0.00;0.00;0.00
75960;PMS7003;64644;48.914;2.254;2023-03-08T09:27:25;0.25;0.25;0.00
75960;PMS7003;64644;48.914;2.254;2023-03-08T09:29:51;1.00;1.00;0.25
75960;PMS7003;64644;48.914;2.254;2023-03-08T09:32:16;1.00;1.00;0.00
75960;PMS7003;64644;48.914;2.254;2023-03-08T09:34:41;0.75;0.75;0.50
75960;PMS7003;64644;48.914;2.254;2023-03-08T09:37:08;1.00;1.00;1.00
75960;PMS7003;64644;48.914;2.254;2023-03-08T09:39:35;2.75;0.25;0.00
75960;PMS7003;64644;48.914;2.254;2023-03-08T09:42:02;1.00;1.00;0.50
75960;PMS7003;64644;48.914;2.254;2023-03-08T09:47:17;1.00;1.00;0.75
75960;PMS7003;64644;48.914;2.254;2023-03-08T09:49:47;2.00;2.00;1.00
75960;PMS7003;64644;48.914;2.254;2023-03-08T09:52:19;2.00;1.00;0.00
75960;PMS7003;64644;48.914;2.254;2023-03-08T09:54:50;0.00;0.00;0.00
75960;PMS7003;64644;48.914;2.254;2023-03-08T09:57:18;1.00;1.00;0.00
75960;PMS7003;64644;48.914;2.254;2023-03-08T09:59:52;1.00;1.00;0.00
75960;PMS7003;64644;48.914;2.254;2023-03-08T10:08:10;0.75;0.75;0.00
75960;PMS7003;64644;48.914;2.254;2023-03-08T10:13:16;0.33;0.33;0.00
75960;PMS7003;64644;48.914;2.254;2023-03-08T10:15:51;1.00;1.00;1.00
75960;PMS7003;64644;48.914;2.254;2023-03-08T10:21:14;0.00;0.00;0.00
75960;PMS7003;64644;48.914;2.254;2023-03-08T10:23:46;0.00;0.00;0.00
75960;PMS7003;64644;48.914;2.254;2023-03-08T10:26:17;1.00;1.00;0.00
75960;PMS7003;64644;48.914;2.254;2023-03-08T10:28:43;1.00;1.00;0.00
75960;PMS7003;64644;48.914;2.254;2023-03-08T10:31:19;2.50;1.00;0.00
75960;PMS7003;64644;48.914;2.254;2023-03-08T10:33:48;1.50;0.50;0.25
75960;PMS7003;64644;48.914;2.254;2023-03-08T10:36:19;0.75;0.75;0.00
75960;PMS7003;64644;48.914;2.254;2023-03-08T10:39:00;1.00;1.00;0.25
75960;PMS7003;64644;48.914;2.254;2023-03-08T10:41:30;2.00;1.00;0.00
75960;PMS7003;64644;48.914;2.254;2023-03-08T10:44:01;1.00;1.00;1.00
75960;PMS7003;64644;48.914;2.254;2023-03-08T10:46:27;0.50;0.50;0.00
75960;PMS7003;64644;48.914;2.254;2023-03-08T10:49:05;1.75;0.00;0.00
75960;PMS7003;64644;48.914;2.254;2023-03-08T10:51:38;0.00;0.00;0.00
75960;PMS7003;64644;48.914;2.254;2023-03-08T10:54:04;1.50;1.00;0.00
75960;PMS7003;64644;48.914;2.254;2023-03-08T10:58:59;2.00;1.00;1.00
75960;PMS7003;64644;48.914;2.254;2023-03-08T11:01:26;0.50;0.00;0.00
75960;PMS7003;64644;48.914;2.254;2023-03-08T11:04:12;2.75;1.00;0.00
75960;PMS7003;64644;48.914;2.254;2023-03-08T11:06:39;0.00;0.00;0.00
75960;PMS7003;64644;48.914;2.254;2023-03-08T11:09:17;2.00;2.00;1.00
75960;PMS7003;64644;48.914;2.254;2023-03-08T11:11:52;0.00;0.00;0.00
75960;PMS7003;64644;48.914;2.254;2023-03-08T11:14:21;0.00;0.00;0.00
75960;PMS7003;64644;48.914;2.254;2023-03-08T11:38:23;0.00;0.00;0.00
75960;PMS7003;64644;48.914;2.254;2023-03-08T11:40:58;0.00;0.00;0.00
75960;PMS7003;64644;48.914;2.254;2023-03-08T11:48:51;1.25;0.75;0.50
75960;PMS7003;64644;48.914;2.254;2023-03-08T11:51:22;1.00;1.00;0.00
75960;PMS7003;64644;48.914;2.254;2023-03-08T11:57:08;0.00;0.00;0.00
75960;PMS7003;64644;48.914;2.254;2023-03-08T12:07:09;1.00;0.75;0.00
75960;PMS7003;64644;48.914;2.254;2023-03-08T12:10:25;0.00;0.00;0.00
75960;PMS7003;64644;48.914;2.254;2023-03-08T12:12:33;0.25;0.25;0.00
75960;PMS7003;64644;48.914;2.254;2023-03-08T12:15:12;0.25;0.25;0.00
75960;PMS7003;64644;48.914;2.254;2023-03-08T12:18:16;1.25;0.00;0.00
75960;PMS7003;64644;48.914;2.254;2023-03-08T12:20:44;1.00;1.00;0.00
75960;PMS7003;64644;48.914;2.254;2023-03-08T12:26:07;0.00;0.00;0.00
75960;PMS7003;64644;48.914;2.254;2023-03-08T12:28:42;0.00;0.00;0.00
75960;PMS7003;64644;48.914;2.254;2023-03-08T12:33:45;0.00;0.00;0.00
75960;PMS7003;64644;48.914;2.254;2023-03-08T12:36:11;0.00;0.00;0.00
75960;PMS7003;64644;48.914;2.254;2023-03-08T12:38:41;2.25;2.25;1.25
75960;PMS7003;64644;48.914;2.254;2023-03-08T12:41:20;2.75;2.75;2.00
75960;PMS7003;64644;48.914;2.254;2023-03-08T12:43:48;1.00;0.00;0.00
75960;PMS7003;64644;48.914;2.254;2023-03-08T12:46:26;0.75;0.75;0.00
75960;PMS7003;64644;48.914;2.254;2023-03-08T12:48:51;3.00;1.00;0.00
75960;PMS7003;64644;48.914;2.254;2023-03-08T12:51:22;1.00;1.00;1.00
75960;PMS7003;64644;48.914;2.254;2023-03-08T12:53:55;0.75;0.75;0.75
75960;PMS7003;64644;48.914;2.254;2023-03-08T13:01:30;0.00;0.00;0.00
75960;PMS7003;64644;48.914;2.254;2023-03-08T13:03:58;1.00;1.00;0.00
75960;PMS7003;64644;48.914;2.254;2023-03-08T13:08:54;0.50;0.50;0.00
75960;PMS7003;64644;48.914;2.254;2023-03-08T13:11:36;0.00;0.00;0.00
75960;PMS7003;64644;48.914;2.254;2023-03-08T13:14:21;3.00;0.00;0.00
75960;PMS7003;64644;48.914;2.254;2023-03-08T13:16:50;0.00;0.00;0.00
75960;PMS7003;64644;48.914;2.254;2023-03-08T13:19:25;0.00;0.00;0.00
75960;PMS7003;64644;48.914;2.254;2023-03-08T13:22:08;0.00;0.00;0.00
75960;PMS7003;64644;48.914;2.254;2023-03-08T13:24:52;3.00;2.00;1.00
75960;PMS7003;64644;48.914;2.254;2023-03-08T13:29:50;0.75;0.75;0.00
75960;PMS7003;64644;48.914;2.254;2023-03-08T13:32:17;1.00;1.00;0.00
75960;PMS7003;64644;48.914;2.254;2023-03-08T13:34:45;1.00;0.00;0.00
75960;PMS7003;64644;48.914;2.254;2023-03-08T13:37:22;1.00;1.00;0.00
75960;PMS7003;64644;48.914;2.254;2023-03-08T13:39:51;0.00;0.00;0.00
75960;PMS7003;64644;48.914;2.254;2023-03-08T13:42:18;0.00;0.00;0.00
75960;PMS7003;64644;48.914;2.254;2023-03-08T13:44:48;0.50;0.50;0.00
75960;PMS7003;64644;48.914;2.254;2023-03-08T13:47:24;1.25;1.00;0.00
75960;PMS7003;64644;48.914;2.254;2023-03-08T13:49:54;1.00;1.00;0.75
75960;PMS7003;64644;48.914;2.254;2023-03-08T13:52:21;1.00;0.00;0.00
75960;PMS7003;64644;48.914;2.254;2023-03-08T13:54:53;1.50;1.00;0.00
75960;PMS7003;64644;48.914;2.254;2023-03-08T13:57:26;0.50;0.50;0.00
75960;PMS7003;64644;48.914;2.254;2023-03-08T13:59:55;0.00;0.00;0.00
75960;PMS7003;64644;48.914;2.254;2023-03-08T14:02:24;0.75;0.75;0.00
75960;PMS7003;64644;48.914;2.254;2023-03-08T14:04:51;0.00;0.00;0.00
75960;PMS7003;64644;48.914;2.254;2023-03-08T14:07:24;0.00;0.00;0.00
75960;PMS7003;64644;48.914;2.254;2023-03-08T14:09:52;1.00;1.00;0.00
75960;PMS7003;64644;48.914;2.254;2023-03-08T14:12:20;1.00;1.00;0.00
75960;PMS7003;64644;48.914;2.254;2023-03-08T14:14:57;0.00;0.00;0.00
75960;PMS7003;64644;48.914;2.254;2023-03-08T14:17:27;0.00;0.00;0.00
75960;PMS7003;64644;48.914;2.254;2023-03-08T14:19:56;0.00;0.00;0.00
75960;PMS7003;64644;48.914;2.254;2023-03-08T14:22:24;2.00;0.75;0.00
75960;PMS7003;64644;48.914;2.254;2023-03-08T14:24:55;0.00;0.00;0.00
75960;PMS7003;64644;48.914;2.254;2023-03-08T14:29:59;1.00;1.00;0.00
75960;PMS7003;64644;48.914;2.254;2023-03-08T14:32:28;0.75;0.75;0.00
75960;PMS7003;64644;48.914;2.254;2023-03-08T14:35:04;0.00;0.00;0.00
75960;PMS7003;64644;48.914;2.254;2023-03-08T14:37:42;0.00;0.00;0.00
75960;PMS7003;64644;48.914;2.254;2023-03-08T14:42:49;0.00;0.00;0.00
75960;PMS7003;64644;48.914;2.254;2023-03-08T14:46:18;0.75;0.75;0.00
75960;PMS7003;64644;48.914;2.254;2023-03-08T14:48:23;1.00;0.00;0.00
75960;PMS7003;64644;48.914;2.254;2023-03-08T14:50:57;0.25;0.25;0.00
75960;PMS7003;64644;48.914;2.254;2023-03-08T14:55:56;0.50;0.50;0.00
75960;PMS7003;64644;48.914;2.254;2023-03-08T14:58:27;1.75;0.00;0.00
75960;PMS7003;64644;48.914;2.254;2023-03-08T15:00:57;0.50;0.00;0.00
75960;PMS7003;64644;48.914;2.254;2023-03-08T15:03:25;0.00;0.00;0.00
75960;PMS7003;64644;48.914;2.254;2023-03-08T15:05:51;1.00;1.00;0.00
75960;PMS7003;64644;48.914;2.254;2023-03-08T15:08:18;0.00;0.00;0.00
75960;PMS7003;64644;48.914;2.254;2023-03-08T15:10:44;0.00;0.00;0.00
75960;PMS7003;64644;48.914;2.254;2023-03-08T15:13:28;0.00;0.00;0.00
75960;PMS7003;64644;48.914;2.254;2023-03-08T15:15:53;0.00;0.00;0.00
75960;PMS7003;64644;48.914;2.254;2023-03-08T15:18:18;0.00;0.00;0.00
75960;PMS7003;64644;48.914;2.254;2023-03-08T15:20:45;1.75;0.75;0.75
75960;PMS7003;64644;48.914;2.254;2023-03-08T15:23:17;0.00;0.00;0.00
75960;PMS7003;64644;48.914;2.254;2023-03-08T15:25:49;0.00;0.00;0.00
75960;PMS7003;64644;48.914;2.254;2023-03-08T15:28:16;0.00;0.00;0.00
75960;PMS7003;64644;48.914;2.254;2023-03-08T15:30:43;1.00;1.00;0.00
75960;PMS7003;64644;48.914;2.254;2023-03-08T15:33:20;0.00;0.00;0.00
75960;PMS7003;64644;48.914;2.254;2023-03-08T15:35:47;0.00;0.00;0.00
75960;PMS7003;64644;48.914;2.254;2023-03-08T15:38:13;0.00;0.00;0.00